createdAt,value
2022-11-17T00:00:42.270Z,71.79
2022-11-17T00:03:15.939Z,71.28
2022-11-17T00:05:44.860Z,71.92
2022-11-17T00:08:12.565Z,71.53
2022-11-17T00:10:40.052Z,71.91
2022-11-17T00:13:27.504Z,71.48
2022-11-17T00:15:55.095Z,72.03
2022-11-17T00:18:43.120Z,72.88
2022-11-17T00:21:19.412Z,72.18
2022-11-17T00:23:50.865Z,72.25
2022-11-17T00:26:22.126Z,72.39
2022-11-17T00:28:58.290Z,72.84
2022-11-17T00:31:46.370Z,72.58
2022-11-17T00:34:22.476Z,72.70
2022-11-17T00:36:53.609Z,72.51
2022-11-17T00:39:22.632Z,72.33
2022-11-17T00:41:50.593Z,72.17
2022-11-17T00:44:18.351Z,73.10
2022-11-17T00:46:45.869Z,72.46
2022-11-17T00:49:16.012Z,72.62
2022-11-17T00:51:43.456Z,73.32
2022-11-17T00:54:13.455Z,73.17
2022-11-17T00:56:41.425Z,73.01
2022-11-17T00:59:08.934Z,73.63
2022-11-17T01:01:37.520Z,74.26
2022-11-17T01:04:05.508Z,74.21
2022-11-17T01:06:42.156Z,74.25
2022-11-17T01:09:16.074Z,74.32
2022-11-17T01:11:44.404Z,74.16
2022-11-17T01:14:15.939Z,74.66
2022-11-17T01:16:43.998Z,74.97
2022-11-17T01:19:14.322Z,74.95
2022-11-17T01:21:42.083Z,73.93
2022-11-17T01:24:11.646Z,73.46
2022-11-17T01:26:40.458Z,73.74
2022-11-17T01:29:08.979Z,73.66
2022-11-17T01:31:39.331Z,74.34
2022-11-17T01:34:07.885Z,73.61
2022-11-17T01:36:57.093Z,73.81
2022-11-17T01:39:25.585Z,74.38
2022-11-17T01:41:53.560Z,74.28
2022-11-17T01:44:53.799Z,74.91
2022-11-17T01:47:55.137Z,75.03
2022-11-17T01:50:34.478Z,74.66
2022-11-17T01:53:05.996Z,75.32
2022-11-17T01:55:41.746Z,75.71
2022-11-17T01:58:17.754Z,75.62
2022-11-17T02:00:45.471Z,74.88
2022-11-17T02:03:13.490Z,75.60
2022-11-17T02:05:46.284Z,75.00
2022-11-17T02:08:15.200Z,75.53
2022-11-17T02:10:50.219Z,75.31
2022-11-17T02:13:21.043Z,74.78
2022-11-17T02:16:13.420Z,75.29
2022-11-17T02:18:46.580Z,75.88
2022-11-17T02:21:58.893Z,76.42
2022-11-17T02:25:10.480Z,75.71
2022-11-17T02:27:59.242Z,75.13
2022-11-17T02:30:40.391Z,75.43
2022-11-17T02:33:18.624Z,74.99
2022-11-17T02:35:54.395Z,75.59
2022-11-17T02:38:21.776Z,74.93
2022-11-17T02:40:55.459Z,75.18
2022-11-17T02:43:48.117Z,75.27
2022-11-17T02:46:22.778Z,75.78
2022-11-17T02:48:58.744Z,76.46
2022-11-17T02:51:26.347Z,75.61
2022-11-17T02:53:56.674Z,75.46
2022-11-17T02:56:24.236Z,77.19
2022-11-17T02:58:56.308Z,77.05
2022-11-17T03:01:42.877Z,76.89
2022-11-17T03:04:32.216Z,77.92
2022-11-17T03:07:11.401Z,78.11
2022-11-17T03:09:49.760Z,78.66
2022-11-17T03:12:29.252Z,78.81
2022-11-17T03:15:24.476Z,79.60
2022-11-17T03:18:17.599Z,79.92
2022-11-17T03:21:04.280Z,79.61
2022-11-17T03:23:31.686Z,79.70
2022-11-17T03:26:01.341Z,80.84
2022-11-17T03:28:30.964Z,80.69
2022-11-17T03:31:00.789Z,80.86
2022-11-17T03:33:30.572Z,81.77
2022-11-17T03:36:24.678Z,82.62
2022-11-17T03:39:01.816Z,81.30
2022-11-17T03:41:36.225Z,82.23
2022-11-17T03:44:06.774Z,82.17
2022-11-17T03:46:37.255Z,81.18
2022-11-17T03:49:20.318Z,80.52
2022-11-17T03:51:47.848Z,80.22
2022-11-17T03:54:16.058Z,81.35
2022-11-17T03:57:20.059Z,81.44
2022-11-17T04:00:04.333Z,82.51
2022-11-17T04:02:44.596Z,82.34
2022-11-17T04:05:13.781Z,81.48
2022-11-17T04:07:43.764Z,81.86
2022-11-17T04:10:17.424Z,81.84
2022-11-17T04:13:04.090Z,82.25
2022-11-17T04:15:50.093Z,81.42
2022-11-17T04:18:17.611Z,81.60
2022-11-17T04:20:45.131Z,82.54
2022-11-17T04:23:14.533Z,82.29
2022-11-17T04:26:08.785Z,82.10
2022-11-17T04:28:39.168Z,81.63
2022-11-17T04:31:12.700Z,82.51
2022-11-17T04:33:46.463Z,83.12
2022-11-17T04:36:16.324Z,82.98
2022-11-17T04:38:47.100Z,83.92
2022-11-17T04:41:35.141Z,83.39
2022-11-17T04:44:04.099Z,83.30
2022-11-17T04:46:33.677Z,83.52
2022-11-17T04:49:02.199Z,84.22
2022-11-17T04:51:31.208Z,82.79
2022-11-17T04:54:00.205Z,83.40
2022-11-17T04:56:28.374Z,82.60
2022-11-17T04:58:57.464Z,83.19
2022-11-17T05:01:26.682Z,82.69
2022-11-17T05:03:55.202Z,83.04
2022-11-17T05:06:41.073Z,83.07
2022-11-17T05:09:11.407Z,83.20
2022-11-17T05:11:57.813Z,83.27
2022-11-17T05:14:27.062Z,83.15
2022-11-17T05:17:11.590Z,83.38
2022-11-17T05:19:44.537Z,83.29
2022-11-17T05:22:38.609Z,83.05
2022-11-17T05:25:06.784Z,83.78
2022-11-17T05:27:35.658Z,84.03
2022-11-17T05:30:04.658Z,82.89
2022-11-17T05:32:34.747Z,83.63
2022-11-17T05:35:03.643Z,83.47
2022-11-17T05:37:31.171Z,83.22
2022-11-17T05:39:58.625Z,82.95
2022-11-17T05:42:26.575Z,83.80
2022-11-17T05:44:54.127Z,83.39
2022-11-17T05:47:21.681Z,83.07
2022-11-17T05:49:49.411Z,82.72
2022-11-17T05:52:16.841Z,83.30
2022-11-17T05:54:44.239Z,84.67
2022-11-17T05:57:19.976Z,84.83
2022-11-17T05:59:51.743Z,85.38
2022-11-17T06:02:30.887Z,84.58
2022-11-17T06:04:58.650Z,85.07
2022-11-17T06:07:27.746Z,84.79
2022-11-17T06:09:55.410Z,85.92
2022-11-17T06:12:22.946Z,85.54
2022-11-17T06:14:50.431Z,85.80
2022-11-17T06:17:29.527Z,85.48
2022-11-17T06:20:05.370Z,85.92
2022-11-17T06:22:34.012Z,86.70
2022-11-17T06:25:05.465Z,86.83
2022-11-17T06:27:37.184Z,85.41
2022-11-17T06:30:06.199Z,85.74
2022-11-17T06:32:36.832Z,85.92
2022-11-17T06:35:08.762Z,86.03
2022-11-17T06:37:36.298Z,86.28
2022-11-17T06:40:04.563Z,85.99
2022-11-17T06:42:50.764Z,86.76
2022-11-17T06:45:19.477Z,86.82
2022-11-17T06:47:46.979Z,86.49
2022-11-17T06:50:14.807Z,87.39
2022-11-17T06:52:42.384Z,87.30
2022-11-17T06:55:10.559Z,87.35
2022-11-17T06:57:38.122Z,86.85
2022-11-17T07:00:14.617Z,87.04
2022-11-17T07:02:42.199Z,87.16
2022-11-17T07:05:10.190Z,86.96
2022-11-17T07:07:37.815Z,87.40
2022-11-17T07:10:05.672Z,86.49
2022-11-17T07:12:36.060Z,86.81
2022-11-17T07:15:03.771Z,87.11
2022-11-17T07:17:32.828Z,86.12
2022-11-17T07:20:00.470Z,86.90
2022-11-17T07:22:27.995Z,87.18
2022-11-17T07:24:55.503Z,87.56
2022-11-17T07:27:23.070Z,87.64
2022-11-17T07:29:50.543Z,87.97
2022-11-17T07:32:18.038Z,88.12
2022-11-17T07:34:45.559Z,87.74
2022-11-17T07:37:13.043Z,88.25
2022-11-17T07:39:40.839Z,88.28
2022-11-17T07:42:09.127Z,88.72
2022-11-17T07:44:36.720Z,87.99
2022-11-17T07:47:04.296Z,88.58
2022-11-17T07:49:31.845Z,87.93
2022-11-17T07:51:59.445Z,88.27
2022-11-17T07:54:26.974Z,88.50
2022-11-17T07:56:54.584Z,88.16
2022-11-17T07:59:22.119Z,87.85
2022-11-17T08:01:52.444Z,88.26
2022-11-17T08:04:20.554Z,88.18
2022-11-17T08:06:48.050Z,88.08
2022-11-17T08:09:16.531Z,88.49
2022-11-17T08:11:44.417Z,88.30
2022-11-17T08:14:13.103Z,87.74
2022-11-17T08:16:41.631Z,88.47
2022-11-17T08:19:12.505Z,88.04
2022-11-17T08:21:41.780Z,87.81
2022-11-17T08:24:09.418Z,87.82
2022-11-17T08:26:37.072Z,87.98
2022-11-17T08:29:04.787Z,88.08
2022-11-17T08:31:32.290Z,87.61
2022-11-17T08:33:59.910Z,87.58
2022-11-17T08:36:27.414Z,87.49
2022-11-17T08:38:54.937Z,87.40
2022-11-17T08:41:22.488Z,87.28
2022-11-17T08:43:52.007Z,86.87
2022-11-17T08:46:19.642Z,87.26
2022-11-17T08:48:48.957Z,87.12
2022-11-17T08:51:19.878Z,87.18
2022-11-17T08:53:47.427Z,87.10
2022-11-17T08:56:14.905Z,87.08
2022-11-17T08:58:45.609Z,86.53
2022-11-17T09:01:18.622Z,86.42
2022-11-17T09:03:50.350Z,86.21
2022-11-17T09:09:09.762Z,85.92
2022-11-17T09:11:41.790Z,86.16
2022-11-17T09:14:09.379Z,86.10
2022-11-17T09:16:37.723Z,85.55
2022-11-17T09:19:05.684Z,85.19
2022-11-17T09:21:34.246Z,85.68
2022-11-17T09:24:01.754Z,85.65
2022-11-17T09:26:29.555Z,85.42
2022-11-17T09:29:00.747Z,85.89
2022-11-17T09:31:28.290Z,85.44
2022-11-17T09:34:12.857Z,85.79
2022-11-17T09:36:40.589Z,85.32
2022-11-17T09:39:08.781Z,85.25
2022-11-17T09:41:56.714Z,85.83
2022-11-17T09:44:42.512Z,85.50
2022-11-17T09:47:31.856Z,85.36
2022-11-17T09:50:34.809Z,85.36
2022-11-17T09:53:20.919Z,85.64
2022-11-17T09:55:54.121Z,85.55
2022-11-17T09:58:35.004Z,86.17
2022-11-17T10:01:02.768Z,86.19
2022-11-17T10:03:38.761Z,86.06
2022-11-17T10:06:22.622Z,85.76
2022-11-17T10:08:58.946Z,86.03
2022-11-17T10:11:52.482Z,85.74
2022-11-17T10:14:23.644Z,85.90
2022-11-17T10:17:00.266Z,86.13
2022-11-17T10:19:31.049Z,86.74
2022-11-17T10:21:58.522Z,86.42
2022-11-17T10:25:17.168Z,87.03
2022-11-17T10:28:12.722Z,86.53
2022-11-17T10:31:15.513Z,86.24
2022-11-17T10:33:59.355Z,86.34
2022-11-17T10:37:31.790Z,86.18
2022-11-17T10:40:44.159Z,85.83
2022-11-17T10:44:03.114Z,86.43
2022-11-17T11:20:27.735Z,86.02
2022-11-17T11:36:37.326Z,86.07
2022-11-17T11:39:45.905Z,86.01
2022-11-17T11:42:46.388Z,86.11
2022-11-17T11:45:35.273Z,86.29
2022-11-17T11:48:18.824Z,86.58
2022-11-17T12:01:06.285Z,86.35
2022-11-17T12:17:02.820Z,87.08
2022-11-17T12:24:14.203Z,86.90
2022-11-17T12:36:25.515Z,86.90
2022-11-17T12:40:27.594Z,87.45
2022-11-17T12:43:20.522Z,87.08
2022-11-17T12:46:52.340Z,87.15
2022-11-17T12:50:26.007Z,86.93
2022-11-17T12:53:59.806Z,87.08
2022-11-17T12:57:38.519Z,87.04
2022-11-17T13:00:50.366Z,86.74
2022-11-17T13:04:11.834Z,86.85
2022-11-17T13:37:30.394Z,86.98
2022-11-17T13:40:38.164Z,86.72
2022-11-17T13:43:26.847Z,86.93
2022-11-17T13:45:55.490Z,86.93
2022-11-17T13:48:37.773Z,86.94
2022-11-17T13:51:20.450Z,87.04
2022-11-17T13:53:56.808Z,86.72
2022-11-17T13:56:44.168Z,86.88
2022-11-17T13:59:26.435Z,86.62
2022-11-17T14:02:15.615Z,86.55
2022-11-17T14:05:26.153Z,86.34
2022-11-17T14:07:57.160Z,86.49
2022-11-17T14:10:48.525Z,86.68
2022-11-17T14:13:28.967Z,86.80
2022-11-17T14:15:59.557Z,86.39
2022-11-17T14:18:46.966Z,86.39
2022-11-17T14:21:19.925Z,86.51
2022-11-17T14:24:02.550Z,86.49
2022-11-17T14:26:31.060Z,86.80
2022-11-17T14:29:07.757Z,86.68
2022-11-17T14:31:44.758Z,86.48
2022-11-17T14:34:12.383Z,86.65
2022-11-17T14:37:24.877Z,86.77
2022-11-17T14:39:52.368Z,86.90
2022-11-17T14:45:34.590Z,86.67
2022-11-17T14:48:03.005Z,86.88
2022-11-17T14:50:30.590Z,86.41
2022-11-17T14:52:58.582Z,86.82
2022-11-17T14:55:57.364Z,86.62
2022-11-17T14:58:25.433Z,86.72
2022-11-17T15:04:58.199Z,86.17
2022-11-17T15:08:49.149Z,86.40
2022-11-17T15:11:18.465Z,86.18
2022-11-17T15:13:45.976Z,86.56
2022-11-17T15:16:14.238Z,86.60
2022-11-17T15:18:45.939Z,86.32
2022-11-17T15:21:15.234Z,86.37
2022-11-17T15:23:43.944Z,86.16
2022-11-17T15:26:14.505Z,86.25
2022-11-17T15:28:42.342Z,86.43
2022-11-17T15:31:12.413Z,86.42
2022-11-17T15:33:41.518Z,85.97
2022-11-17T15:36:11.248Z,85.77
2022-11-17T15:38:40.453Z,86.28
2022-11-17T15:41:10.035Z,85.86
2022-11-17T15:43:39.397Z,86.01
2022-11-17T15:46:12.796Z,85.73
2022-11-17T15:48:45.050Z,85.95
2022-11-17T15:51:15.155Z,86.02
2022-11-17T15:53:44.283Z,86.25
2022-11-17T15:56:21.143Z,86.12
2022-11-17T15:58:54.155Z,86.17
2022-11-17T16:01:29.849Z,86.31
2022-11-17T16:04:03.218Z,86.54
2022-11-17T16:06:32.450Z,86.10
2022-11-17T16:09:00.397Z,86.10
2022-11-17T16:11:28.443Z,85.74
2022-11-17T16:13:57.540Z,86.06
2022-11-17T16:16:27.791Z,86.02
2022-11-17T16:18:55.626Z,85.87
2022-11-17T16:21:23.297Z,85.58
2022-11-17T16:23:54.828Z,85.80
2022-11-17T16:26:27.026Z,85.54
2022-11-17T16:29:03.024Z,85.96
2022-11-17T16:31:33.091Z,85.61
2022-11-17T16:34:03.192Z,85.49
2022-11-17T16:36:37.116Z,85.19
2022-11-17T16:39:06.889Z,85.09
2022-11-17T16:41:39.995Z,85.22
2022-11-17T16:44:09.796Z,85.14
2022-11-17T16:46:38.355Z,85.14
2022-11-17T16:49:08.304Z,85.17
2022-11-17T16:51:36.005Z,85.07
2022-11-17T16:54:06.812Z,84.96
2022-11-17T16:56:35.126Z,84.69
2022-11-17T16:59:02.591Z,85.20
2022-11-17T17:01:33.325Z,85.14
2022-11-17T17:04:04.245Z,85.43
2022-11-17T17:06:34.771Z,85.07
2022-11-17T17:09:05.380Z,85.25
2022-11-17T17:11:34.514Z,85.16
2022-11-17T17:14:04.866Z,85.31
2022-11-17T17:16:34.383Z,85.33
2022-11-17T17:19:09.401Z,85.63
2022-11-17T17:21:38.593Z,85.44
2022-11-17T17:24:06.756Z,85.82
2022-11-17T17:26:35.805Z,85.47
2022-11-17T17:29:06.144Z,85.37
2022-11-17T17:31:37.716Z,85.21
2022-11-17T17:34:06.762Z,85.31
2022-11-17T17:36:35.863Z,85.28
2022-11-17T17:39:04.139Z,85.18
2022-11-17T17:41:39.965Z,84.85
2022-11-17T17:44:08.867Z,85.11
2022-11-17T17:46:38.678Z,85.04
2022-11-17T17:49:06.984Z,84.71
2022-11-17T17:51:41.958Z,84.90
2022-11-17T17:54:16.001Z,85.06
2022-11-17T17:56:43.866Z,85.02
2022-11-17T17:59:13.851Z,84.74
2022-11-17T18:01:42.485Z,85.60
2022-11-17T18:04:15.299Z,85.25
2022-11-17T18:06:47.321Z,85.04
2022-11-17T18:09:19.508Z,85.06
2022-11-17T18:11:50.826Z,85.56
2022-11-17T18:14:24.573Z,85.44
2022-11-17T18:16:52.995Z,85.73
2022-11-17T18:19:21.032Z,85.89
2022-11-17T18:21:48.574Z,85.22
2022-11-17T18:24:16.190Z,85.34
2022-11-17T18:26:44.091Z,85.48
2022-11-17T18:29:19.600Z,85.93
2022-11-17T18:31:48.143Z,85.66
2022-11-17T18:34:21.886Z,85.45
2022-11-17T18:36:50.823Z,85.81
2022-11-17T18:39:18.816Z,85.66
2022-11-17T18:41:46.716Z,86.07
2022-11-17T18:44:15.726Z,85.98
2022-11-17T18:46:43.643Z,86.04
2022-11-17T18:49:11.452Z,85.76
2022-11-17T18:51:38.954Z,85.89
2022-11-17T18:54:09.616Z,85.49
2022-11-17T18:56:38.605Z,85.47
2022-11-17T18:59:11.938Z,85.36
2022-11-17T19:01:42.188Z,85.75
2022-11-17T19:04:11.896Z,85.72
2022-11-17T19:06:39.479Z,86.04
2022-11-17T19:09:08.479Z,86.05
2022-11-17T19:11:36.300Z,85.73
2022-11-17T19:14:07.259Z,85.66
2022-11-17T19:16:44.397Z,85.66
2022-11-17T19:19:14.039Z,85.84
2022-11-17T19:21:42.496Z,86.03
2022-11-17T19:24:35.431Z,85.99
2022-11-17T19:27:05.314Z,85.70
2022-11-17T19:29:32.788Z,86.28
2022-11-17T19:32:00.426Z,86.09
2022-11-17T19:34:27.949Z,85.86
2022-11-17T19:36:55.596Z,86.15
2022-11-17T19:39:23.120Z,86.06
2022-11-17T19:41:50.635Z,85.58
2022-11-17T19:44:18.276Z,85.83
2022-11-17T19:46:45.847Z,86.24
2022-11-17T19:49:13.510Z,85.98
2022-11-17T19:51:42.318Z,85.72
2022-11-17T19:54:12.128Z,85.15
2022-11-17T19:56:39.723Z,85.24
2022-11-17T19:59:11.012Z,85.53
2022-11-17T20:04:23.009Z,85.22
2022-11-17T20:06:52.898Z,84.88
2022-11-17T20:09:20.545Z,85.23
2022-11-17T20:11:48.097Z,84.97
2022-11-17T20:14:15.601Z,85.05
2022-11-17T20:16:43.177Z,84.72
2022-11-17T20:19:29.279Z,84.84
2022-11-17T20:21:56.758Z,84.85
2022-11-17T20:24:24.293Z,84.44
2022-11-17T20:26:51.868Z,84.88
2022-11-17T20:29:19.493Z,84.24
2022-11-17T20:31:47.116Z,84.18
2022-11-17T20:34:14.623Z,84.46
2022-11-17T20:36:42.132Z,84.42
2022-11-17T20:39:09.707Z,84.21
2022-11-17T20:41:37.264Z,84.23
2022-11-17T20:44:04.948Z,83.79
2022-11-17T20:46:32.437Z,83.81
2022-11-17T20:48:59.930Z,84.33
2022-11-17T20:51:27.384Z,84.11
2022-11-17T20:53:55.541Z,84.50
2022-11-17T20:56:23.281Z,84.84
2022-11-17T20:58:50.773Z,84.75
2022-11-17T21:01:20.688Z,84.64
2022-11-17T21:03:48.761Z,84.80
2022-11-17T21:06:16.999Z,85.10
2022-11-17T21:08:47.189Z,85.40
2022-11-17T21:11:39.203Z,85.12
2022-11-17T21:14:08.964Z,85.22
2022-11-17T21:16:42.652Z,85.36
2022-11-17T21:19:10.406Z,85.08
2022-11-17T21:21:37.914Z,84.71
2022-11-17T21:25:20.927Z,85.28
2022-11-17T21:28:13.707Z,84.47
2022-11-17T21:30:41.291Z,84.67
2022-11-17T21:33:08.788Z,84.68
2022-11-17T21:36:51.145Z,84.55
2022-11-17T21:39:43.670Z,84.58
2022-11-17T21:42:11.217Z,83.95
2022-11-17T21:49:21.441Z,83.76
2022-11-17T21:51:48.940Z,84.17
2022-11-17T21:54:16.724Z,84.28
2022-11-17T21:56:44.330Z,84.07
2022-11-17T21:59:22.622Z,84.25
2022-11-17T22:01:50.192Z,84.66
2022-11-17T22:04:19.395Z,84.24
2022-11-17T22:06:46.895Z,84.42
2022-11-17T22:09:14.709Z,84.00
2022-11-17T22:11:55.965Z,84.56
2022-11-17T22:14:23.572Z,84.16
2022-11-17T22:16:58.416Z,84.21
2022-11-17T22:19:28.669Z,83.83
2022-11-17T22:21:56.194Z,84.11
2022-11-17T22:24:23.788Z,84.14
2022-11-17T22:26:51.862Z,84.79
2022-11-17T22:29:21.464Z,84.62
2022-11-17T22:31:50.355Z,84.34
2022-11-17T22:34:18.931Z,84.75
2022-11-17T22:36:46.674Z,84.27
2022-11-17T22:39:14.305Z,84.81
2022-11-17T22:41:42.011Z,84.29
2022-11-17T22:44:14.190Z,84.27
2022-11-17T22:46:43.445Z,84.45
2022-11-17T22:49:11.154Z,84.35
2022-11-17T22:51:57.106Z,84.08
2022-11-17T22:54:24.635Z,84.16
2022-11-17T22:56:52.146Z,84.42
2022-11-17T22:59:21.395Z,84.28
2022-11-17T23:01:48.956Z,84.53
2022-11-17T23:04:16.844Z,84.47
2022-11-17T23:06:45.213Z,84.24
2022-11-17T23:09:13.054Z,83.92
2022-11-17T23:11:40.913Z,83.54
2022-11-17T23:14:11.109Z,83.62
2022-11-17T23:16:39.472Z,83.85
2022-11-17T23:19:09.722Z,83.84
2022-11-17T23:21:37.214Z,83.66
2022-11-17T23:24:10.097Z,83.28
2022-11-17T23:26:37.596Z,83.77
2022-11-17T23:29:05.365Z,83.64
2022-11-17T23:31:33.055Z,83.66
2022-11-17T23:34:00.645Z,83.72
2022-11-17T23:36:28.145Z,83.26
2022-11-17T23:38:57.879Z,82.92
2022-11-17T23:41:25.794Z,83.04
2022-11-17T23:43:54.565Z,82.69
2022-11-17T23:46:24.667Z,82.66
2022-11-17T23:48:52.433Z,82.18
2022-11-17T23:51:22.813Z,81.94
2022-11-17T23:53:50.894Z,81.74
2022-11-17T23:56:20.880Z,81.47
2022-11-17T23:59:15.185Z,80.92
